sensor_id;sensor_type;location;lat;lon;timestamp;temperature;humidity
22852;DHT22;11592;45.460;9.240;2023-02-14T00:00:53;6.40;99.90
22852;DHT22;11592;45.460;9.240;2023-02-14T00:03:20;6.40;99.90
22852;DHT22;11592;45.460;9.240;2023-02-14T00:05:46;6.40;99.90
22852;DHT22;11592;45.460;9.240;2023-02-14T00:08:14;6.30;99.90
22852;DHT22;11592;45.460;9.240;2023-02-14T00:10:41;6.30;99.90
22852;DHT22;11592;45.460;9.240;2023-02-14T00:13:08;6.30;99.90
22852;DHT22;11592;45.460;9.240;2023-02-14T00:15:35;6.30;99.90
22852;DHT22;11592;45.460;9.240;2023-02-14T00:18:01;6.20;99.90
22852;DHT22;11592;45.460;9.240;2023-02-14T00:20:29;6.20;99.90
22852;DHT22;11592;45.460;9.240;2023-02-14T00:22:55;6.10;99.90
22852;DHT22;11592;45.460;9.240;2023-02-14T00:25:22;6.10;99.90
22852;DHT22;11592;45.460;9.240;2023-02-14T00:27:49;6.10;99.90
22852;DHT22;11592;45.460;9.240;2023-02-14T00:30:16;6.10;99.90
22852;DHT22;11592;45.460;9.240;2023-02-14T00:32:43;6.10;99.90
22852;DHT22;11592;45.460;9.240;2023-02-14T00:35:10;6.10;99.90
22852;DHT22;11592;45.460;9.240;2023-02-14T00:37:37;6.10;99.90
22852;DHT22;11592;45.460;9.240;2023-02-14T00:40:05;6.00;99.90
22852;DHT22;11592;45.460;9.240;2023-02-14T00:42:32;6.00;99.90
22852;DHT22;11592;45.460;9.240;2023-02-14T00:44:59;5.90;99.90
22852;DHT22;11592;45.460;9.240;2023-02-14T00:47:26;6.00;99.90
22852;DHT22;11592;45.460;9.240;2023-02-14T00:49:53;6.00;99.90
22852;DHT22;11592;45.460;9.240;2023-02-14T00:52:20;6.00;99.90
22852;DHT22;11592;45.460;9.240;2023-02-14T00:54:46;6.00;99.90
22852;DHT22;11592;45.460;9.240;2023-02-14T00:57:13;5.90;99.90
22852;DHT22;11592;45.460;9.240;2023-02-14T00:59:40;5.90;99.90
22852;DHT22;11592;45.460;9.240;2023-02-14T01:02:07;5.90;99.90
22852;DHT22;11592;45.460;9.240;2023-02-14T01:04:35;5.90;99.90
22852;DHT22;11592;45.460;9.240;2023-02-14T01:07:02;5.90;99.90
22852;DHT22;11592;45.460;9.240;2023-02-14T01:09:28;5.90;99.90
22852;DHT22;11592;45.460;9.240;2023-02-14T01:11:55;6.00;99.90
22852;DHT22;11592;45.460;9.240;2023-02-14T01:14:22;5.90;99.90
22852;DHT22;11592;45.460;9.240;2023-02-14T01:16:49;5.90;99.90
22852;DHT22;11592;45.460;9.240;2023-02-14T01:19:16;5.80;99.90
22852;DHT22;11592;45.460;9.240;2023-02-14T01:21:43;5.70;99.90
22852;DHT22;11592;45.460;9.240;2023-02-14T01:24:11;5.70;99.90
22852;DHT22;11592;45.460;9.240;2023-02-14T01:26:38;5.70;99.90
22852;DHT22;11592;45.460;9.240;2023-02-14T01:29:05;5.70;99.90
22852;DHT22;11592;45.460;9.240;2023-02-14T01:31:33;5.60;99.90
22852;DHT22;11592;45.460;9.240;2023-02-14T01:34:01;5.60;99.90
22852;DHT22;11592;45.460;9.240;2023-02-14T01:36:31;5.60;99.90
22852;DHT22;11592;45.460;9.240;2023-02-14T01:39:02;5.60;99.90
22852;DHT22;11592;45.460;9.240;2023-02-14T01:41:31;5.50;99.90
22852;DHT22;11592;45.460;9.240;2023-02-14T01:44:01;5.50;99.90
22852;DHT22;11592;45.460;9.240;2023-02-14T01:46:31;5.60;99.90
22852;DHT22;11592;45.460;9.240;2023-02-14T01:49:08;5.60;99.90
22852;DHT22;11592;45.460;9.240;2023-02-14T01:51:45;5.50;99.90
22852;DHT22;11592;45.460;9.240;2023-02-14T01:54:15;5.50;99.90
22852;DHT22;11592;45.460;9.240;2023-02-14T01:56:46;5.40;99.90
22852;DHT22;11592;45.460;9.240;2023-02-14T01:59:18;5.50;99.90
22852;DHT22;11592;45.460;9.240;2023-02-14T02:01:48;5.40;99.90
22852;DHT22;11592;45.460;9.240;2023-02-14T02:04:21;5.40;99.90
22852;DHT22;11592;45.460;9.240;2023-02-14T02:06:53;5.40;99.90
22852;DHT22;11592;45.460;9.240;2023-02-14T02:09:38;5.40;99.90
22852;DHT22;11592;45.460;9.240;2023-02-14T02:12:07;5.40;99.90
22852;DHT22;11592;45.460;9.240;2023-02-14T02:14:35;5.40;99.90
22852;DHT22;11592;45.460;9.240;2023-02-14T02:20:02;5.40;99.90
22852;DHT22;11592;45.460;9.240;2023-02-14T02:31:08;5.20;99.90
22852;DHT22;11592;45.460;9.240;2023-02-14T02:36:42;5.10;99.90
22852;DHT22;11592;45.460;9.240;2023-02-14T02:53:03;5.10;99.90
22852;DHT22;11592;45.460;9.240;2023-02-14T02:58:50;5.10;99.90
22852;DHT22;11592;45.460;9.240;2023-02-14T03:01:38;5.10;99.90
22852;DHT22;11592;45.460;9.240;2023-02-14T03:04:10;5.00;99.90
22852;DHT22;11592;45.460;9.240;2023-02-14T03:06:56;5.10;99.90
22852;DHT22;11592;45.460;9.240;2023-02-14T03:15:11;5.20;99.90
22852;DHT22;11592;45.460;9.240;2023-02-14T03:20:48;5.00;99.90
22852;DHT22;11592;45.460;9.240;2023-02-14T03:28:45;5.00;99.90
22852;DHT22;11592;45.460;9.240;2023-02-14T03:31:48;5.00;99.90
22852;DHT22;11592;45.460;9.240;2023-02-14T03:37:11;5.10;99.90
22852;DHT22;11592;45.460;9.240;2023-02-14T03:39:42;5.10;99.90
22852;DHT22;11592;45.460;9.240;2023-02-14T03:42:19;5.00;99.90
22852;DHT22;11592;45.460;9.240;2023-02-14T03:44:47;4.90;99.90
22852;DHT22;11592;45.460;9.240;2023-02-14T03:47:19;4.80;99.90
22852;DHT22;11592;45.460;9.240;2023-02-14T03:49:54;4.80;99.90
22852;DHT22;11592;45.460;9.240;2023-02-14T03:52:23;4.80;99.90
22852;DHT22;11592;45.460;9.240;2023-02-14T03:54:54;4.80;99.90
22852;DHT22;11592;45.460;9.240;2023-02-14T03:57:29;4.80;99.90
22852;DHT22;11592;45.460;9.240;2023-02-14T03:59:58;4.70;99.90
22852;DHT22;11592;45.460;9.240;2023-02-14T04:02:33;4.70;99.90
22852;DHT22;11592;45.460;9.240;2023-02-14T04:05:04;4.70;99.90
22852;DHT22;11592;45.460;9.240;2023-02-14T04:07:47;4.70;99.90
22852;DHT22;11592;45.460;9.240;2023-02-14T04:10:15;4.70;99.90
22852;DHT22;11592;45.460;9.240;2023-02-14T04:12:42;4.70;99.90
22852;DHT22;11592;45.460;9.240;2023-02-14T04:15:10;4.70;99.90
22852;DHT22;11592;45.460;9.240;2023-02-14T04:17:37;4.60;99.90
22852;DHT22;11592;45.460;9.240;2023-02-14T04:20:22;4.60;99.90
22852;DHT22;11592;45.460;9.240;2023-02-14T04:22:49;4.60;99.90
22852;DHT22;11592;45.460;9.240;2023-02-14T04:25:18;4.60;99.90
22852;DHT22;11592;45.460;9.240;2023-02-14T04:27:45;4.60;99.90
22852;DHT22;11592;45.460;9.240;2023-02-14T04:30:12;4.70;99.90
22852;DHT22;11592;45.460;9.240;2023-02-14T04:32:40;4.80;99.90
22852;DHT22;11592;45.460;9.240;2023-02-14T04:35:07;4.80;99.90
22852;DHT22;11592;45.460;9.240;2023-02-14T04:37:34;4.60;99.90
22852;DHT22;11592;45.460;9.240;2023-02-14T04:40:01;4.60;99.90
22852;DHT22;11592;45.460;9.240;2023-02-14T04:42:27;4.50;99.90
22852;DHT22;11592;45.460;9.240;2023-02-14T04:44:54;4.50;99.90
22852;DHT22;11592;45.460;9.240;2023-02-14T04:47:21;4.50;99.90
22852;DHT22;11592;45.460;9.240;2023-02-14T04:49:48;4.40;99.90
22852;DHT22;11592;45.460;9.240;2023-02-14T04:52:15;4.40;99.90
22852;DHT22;11592;45.460;9.240;2023-02-14T04:54:43;4.40;99.90
22852;DHT22;11592;45.460;9.240;2023-02-14T04:57:09;4.30;99.90
22852;DHT22;11592;45.460;9.240;2023-02-14T04:59:36;4.30;99.90
22852;DHT22;11592;45.460;9.240;2023-02-14T05:02:03;4.20;99.90
22852;DHT22;11592;45.460;9.240;2023-02-14T05:04:30;4.20;99.90
22852;DHT22;11592;45.460;9.240;2023-02-14T05:06:57;4.20;99.90
22852;DHT22;11592;45.460;9.240;2023-02-14T05:09:24;4.30;99.90
22852;DHT22;11592;45.460;9.240;2023-02-14T05:11:50;4.30;99.90
22852;DHT22;11592;45.460;9.240;2023-02-14T05:14:17;4.30;99.90
22852;DHT22;11592;45.460;9.240;2023-02-14T05:16:44;4.30;99.90
22852;DHT22;11592;45.460;9.240;2023-02-14T05:19:11;4.30;99.90
22852;DHT22;11592;45.460;9.240;2023-02-14T05:21:37;4.20;99.90
22852;DHT22;11592;45.460;9.240;2023-02-14T05:24:04;4.20;99.90
22852;DHT22;11592;45.460;9.240;2023-02-14T05:26:31;4.20;99.90
22852;DHT22;11592;45.460;9.240;2023-02-14T05:28:58;4.20;99.90
22852;DHT22;11592;45.460;9.240;2023-02-14T05:31:25;4.20;99.90
22852;DHT22;11592;45.460;9.240;2023-02-14T05:33:52;4.10;99.90
22852;DHT22;11592;45.460;9.240;2023-02-14T05:36:19;4.10;99.90
22852;DHT22;11592;45.460;9.240;2023-02-14T05:38:46;4.10;99.90
22852;DHT22;11592;45.460;9.240;2023-02-14T05:41:12;4.10;99.90
22852;DHT22;11592;45.460;9.240;2023-02-14T05:43:39;4.10;99.90
22852;DHT22;11592;45.460;9.240;2023-02-14T05:46:06;4.20;99.90
22852;DHT22;11592;45.460;9.240;2023-02-14T05:48:33;4.20;99.90
22852;DHT22;11592;45.460;9.240;2023-02-14T05:51:08;4.20;99.90
22852;DHT22;11592;45.460;9.240;2023-02-14T05:53:35;4.20;99.90
22852;DHT22;11592;45.460;9.240;2023-02-14T05:56:02;4.10;99.90
22852;DHT22;11592;45.460;9.240;2023-02-14T05:58:29;4.20;99.90
22852;DHT22;11592;45.460;9.240;2023-02-14T06:00:57;4.20;99.90
22852;DHT22;11592;45.460;9.240;2023-02-14T06:03:25;4.20;99.90
22852;DHT22;11592;45.460;9.240;2023-02-14T06:05:51;4.10;99.90
22852;DHT22;11592;45.460;9.240;2023-02-14T06:08:18;4.10;99.90
22852;DHT22;11592;45.460;9.240;2023-02-14T06:10:45;4.10;99.90
22852;DHT22;11592;45.460;9.240;2023-02-14T06:13:12;4.00;99.90
22852;DHT22;11592;45.460;9.240;2023-02-14T06:15:39;4.10;99.90
22852;DHT22;11592;45.460;9.240;2023-02-14T06:18:06;4.00;99.90
22852;DHT22;11592;45.460;9.240;2023-02-14T06:20:33;4.00;99.90
22852;DHT22;11592;45.460;9.240;2023-02-14T06:23:00;3.90;99.90
22852;DHT22;11592;45.460;9.240;2023-02-14T06:25:27;3.90;99.90
22852;DHT22;11592;45.460;9.240;2023-02-14T06:27:55;3.90;99.90
22852;DHT22;11592;45.460;9.240;2023-02-14T06:30:23;3.90;99.90
22852;DHT22;11592;45.460;9.240;2023-02-14T06:32:50;3.80;99.90
22852;DHT22;11592;45.460;9.240;2023-02-14T06:35:17;3.80;99.90
22852;DHT22;11592;45.460;9.240;2023-02-14T06:37:44;3.80;99.90
22852;DHT22;11592;45.460;9.240;2023-02-14T06:40:12;3.80;99.90
22852;DHT22;11592;45.460;9.240;2023-02-14T06:42:39;3.80;99.90
22852;DHT22;11592;45.460;9.240;2023-02-14T06:45:06;3.80;99.90
22852;DHT22;11592;45.460;9.240;2023-02-14T06:47:33;3.80;99.90
22852;DHT22;11592;45.460;9.240;2023-02-14T06:50:01;3.80;99.90
22852;DHT22;11592;45.460;9.240;2023-02-14T06:52:31;3.80;99.90
22852;DHT22;11592;45.460;9.240;2023-02-14T06:54:58;3.80;99.90
22852;DHT22;11592;45.460;9.240;2023-02-14T06:57:25;3.80;99.90
22852;DHT22;11592;45.460;9.240;2023-02-14T06:59:51;3.80;99.90
22852;DHT22;11592;45.460;9.240;2023-02-14T07:02:18;3.90;99.90
22852;DHT22;11592;45.460;9.240;2023-02-14T07:04:47;3.90;99.90
22852;DHT22;11592;45.460;9.240;2023-02-14T07:07:14;3.90;99.90
22852;DHT22;11592;45.460;9.240;2023-02-14T07:09:40;3.90;99.90
22852;DHT22;11592;45.460;9.240;2023-02-14T07:12:07;3.90;99.90
22852;DHT22;11592;45.460;9.240;2023-02-14T07:14:34;4.00;99.90
22852;DHT22;11592;45.460;9.240;2023-02-14T07:17:02;3.90;99.90
22852;DHT22;11592;45.460;9.240;2023-02-14T07:19:28;3.90;99.90
22852;DHT22;11592;45.460;9.240;2023-02-14T07:21:55;3.90;99.90
22852;DHT22;11592;45.460;9.240;2023-02-14T07:24:22;4.00;99.90
22852;DHT22;11592;45.460;9.240;2023-02-14T07:26:48;4.00;99.90
22852;DHT22;11592;45.460;9.240;2023-02-14T07:29:15;4.00;99.90
22852;DHT22;11592;45.460;9.240;2023-02-14T07:31:42;4.10;99.90
22852;DHT22;11592;45.460;9.240;2023-02-14T07:34:09;4.10;99.90
22852;DHT22;11592;45.460;9.240;2023-02-14T07:36:37;4.20;99.90
22852;DHT22;11592;45.460;9.240;2023-02-14T07:39:04;4.40;99.90
22852;DHT22;11592;45.460;9.240;2023-02-14T07:41:31;4.40;99.90
22852;DHT22;11592;45.460;9.240;2023-02-14T07:43:58;4.40;99.90
22852;DHT22;11592;45.460;9.240;2023-02-14T07:46:25;4.60;99.90
22852;DHT22;11592;45.460;9.240;2023-02-14T07:48:52;4.70;99.90
22852;DHT22;11592;45.460;9.240;2023-02-14T07:51:18;4.70;99.90
22852;DHT22;11592;45.460;9.240;2023-02-14T07:53:45;4.80;99.90
22852;DHT22;11592;45.460;9.240;2023-02-14T07:56:12;4.90;99.90
22852;DHT22;11592;45.460;9.240;2023-02-14T07:58:39;5.20;99.90
22852;DHT22;11592;45.460;9.240;2023-02-14T08:01:06;5.30;99.90
22852;DHT22;11592;45.460;9.240;2023-02-14T08:03:32;5.50;99.90
22852;DHT22;11592;45.460;9.240;2023-02-14T08:05:59;5.60;99.90
22852;DHT22;11592;45.460;9.240;2023-02-14T08:08:28;5.70;99.90
22852;DHT22;11592;45.460;9.240;2023-02-14T08:10:55;5.80;99.90
22852;DHT22;11592;45.460;9.240;2023-02-14T08:13:22;5.90;99.90
22852;DHT22;11592;45.460;9.240;2023-02-14T08:15:49;6.00;99.90
22852;DHT22;11592;45.460;9.240;2023-02-14T08:18:35;6.10;99.90
22852;DHT22;11592;45.460;9.240;2023-02-14T08:21:02;6.20;99.90
22852;DHT22;11592;45.460;9.240;2023-02-14T08:23:30;6.30;99.90
22852;DHT22;11592;45.460;9.240;2023-02-14T08:25:57;6.40;99.90
22852;DHT22;11592;45.460;9.240;2023-02-14T08:28:24;6.50;99.90
22852;DHT22;11592;45.460;9.240;2023-02-14T08:30:52;6.60;99.90
22852;DHT22;11592;45.460;9.240;2023-02-14T08:33:19;6.60;99.90
22852;DHT22;11592;45.460;9.240;2023-02-14T08:35:47;6.70;99.90
22852;DHT22;11592;45.460;9.240;2023-02-14T08:38:13;6.70;99.90
22852;DHT22;11592;45.460;9.240;2023-02-14T08:40:40;6.90;99.90
22852;DHT22;11592;45.460;9.240;2023-02-14T08:43:07;7.00;99.90
22852;DHT22;11592;45.460;9.240;2023-02-14T08:45:35;7.00;99.90
22852;DHT22;11592;45.460;9.240;2023-02-14T08:48:05;7.10;99.90
22852;DHT22;11592;45.460;9.240;2023-02-14T08:50:32;7.30;99.90
22852;DHT22;11592;45.460;9.240;2023-02-14T08:52:59;7.30;99.90
22852;DHT22;11592;45.460;9.240;2023-02-14T08:55:26;7.20;99.90
22852;DHT22;11592;45.460;9.240;2023-02-14T08:57:56;7.30;99.90
22852;DHT22;11592;45.460;9.240;2023-02-14T09:00:23;7.50;99.90
22852;DHT22;11592;45.460;9.240;2023-02-14T09:02:51;7.60;99.90
22852;DHT22;11592;45.460;9.240;2023-02-14T09:05:19;7.80;99.90
22852;DHT22;11592;45.460;9.240;2023-02-14T09:07:49;7.90;99.90
22852;DHT22;11592;45.460;9.240;2023-02-14T09:10:16;8.00;99.90
22852;DHT22;11592;45.460;9.240;2023-02-14T09:12:44;8.10;99.90
22852;DHT22;11592;45.460;9.240;2023-02-14T09:15:11;8.10;99.90
22852;DHT22;11592;45.460;9.240;2023-02-14T09:17:38;8.10;99.90
22852;DHT22;11592;45.460;9.240;2023-02-14T09:20:07;8.20;99.90
22852;DHT22;11592;45.460;9.240;2023-02-14T09:22:34;8.30;99.90
22852;DHT22;11592;45.460;9.240;2023-02-14T09:25:01;8.40;99.90
22852;DHT22;11592;45.460;9.240;2023-02-14T09:27:28;8.30;99.90
22852;DHT22;11592;45.460;9.240;2023-02-14T09:29:55;8.40;99.90
22852;DHT22;11592;45.460;9.240;2023-02-14T09:32:22;8.40;99.90
22852;DHT22;11592;45.460;9.240;2023-02-14T09:34:49;8.40;99.90
22852;DHT22;11592;45.460;9.240;2023-02-14T09:37:34;8.60;99.90
22852;DHT22;11592;45.460;9.240;2023-02-14T09:40:20;8.70;99.90
22852;DHT22;11592;45.460;9.240;2023-02-14T09:45:24;9.20;99.90
22852;DHT22;11592;45.460;9.240;2023-02-14T09:50:53;9.50;99.90
22852;DHT22;11592;45.460;9.240;2023-02-14T09:53:32;9.80;99.90
22852;DHT22;11592;45.460;9.240;2023-02-14T09:58:35;10.10;99.90
22852;DHT22;11592;45.460;9.240;2023-02-14T10:01:17;10.20;99.90
22852;DHT22;11592;45.460;9.240;2023-02-14T10:03:57;10.30;99.90
22852;DHT22;11592;45.460;9.240;2023-02-14T10:06:44;10.40;99.90
22852;DHT22;11592;45.460;9.240;2023-02-14T10:11:39;10.50;99.90
22852;DHT22;11592;45.460;9.240;2023-02-14T10:14:10;10.60;99.90
22852;DHT22;11592;45.460;9.240;2023-02-14T10:16:42;10.60;99.90
22852;DHT22;11592;45.460;9.240;2023-02-14T10:19:25;10.70;99.90
22852;DHT22;11592;45.460;9.240;2023-02-14T10:22:00;10.80;99.90
22852;DHT22;11592;45.460;9.240;2023-02-14T10:24:51;11.00;99.90
22852;DHT22;11592;45.460;9.240;2023-02-14T10:27:33;11.20;99.90
22852;DHT22;11592;45.460;9.240;2023-02-14T10:30:01;11.30;99.90
22852;DHT22;11592;45.460;9.240;2023-02-14T10:32:42;11.60;99.90
22852;DHT22;11592;45.460;9.240;2023-02-14T10:35:39;11.70;99.90
22852;DHT22;11592;45.460;9.240;2023-02-14T10:41:15;12.00;99.90
22852;DHT22;11592;45.460;9.240;2023-02-14T10:46:37;12.40;99.90
22852;DHT22;11592;45.460;9.240;2023-02-14T10:52:38;12.50;99.90
22852;DHT22;11592;45.460;9.240;2023-02-14T10:55:19;12.50;99.90
22852;DHT22;11592;45.460;9.240;2023-02-14T10:57:58;12.70;99.90
22852;DHT22;11592;45.460;9.240;2023-02-14T11:00:36;12.70;99.90
22852;DHT22;11592;45.460;9.240;2023-02-14T11:03:07;12.70;99.90
22852;DHT22;11592;45.460;9.240;2023-02-14T11:05:41;12.90;99.90
22852;DHT22;11592;45.460;9.240;2023-02-14T11:08:36;13.30;99.90
22852;DHT22;11592;45.460;9.240;2023-02-14T11:11:12;13.90;99.80
22852;DHT22;11592;45.460;9.240;2023-02-14T11:13:42;14.10;99.20
22852;DHT22;11592;45.460;9.240;2023-02-14T11:16:12;14.10;99.30
22852;DHT22;11592;45.460;9.240;2023-02-14T11:18:43;14.10;99.10
22852;DHT22;11592;45.460;9.240;2023-02-14T11:21:13;14.30;99.50
22852;DHT22;11592;45.460;9.240;2023-02-14T11:23:43;14.50;99.00
22852;DHT22;11592;45.460;9.240;2023-02-14T11:26:19;15.30;98.20
22852;DHT22;11592;45.460;9.240;2023-02-14T11:31:36;21.00;91.60
22852;DHT22;11592;45.460;9.240;2023-02-14T11:34:23;24.50;75.20
22852;DHT22;11592;45.460;9.240;2023-02-14T11:36:51;26.70;60.50
22852;DHT22;11592;45.460;9.240;2023-02-14T11:39:39;28.60;53.60
22852;DHT22;11592;45.460;9.240;2023-02-14T11:42:08;30.70;45.80
22852;DHT22;11592;45.460;9.240;2023-02-14T11:44:36;31.60;41.90
22852;DHT22;11592;45.460;9.240;2023-02-14T11:47:38;32.30;40.20
22852;DHT22;11592;45.460;9.240;2023-02-14T11:50:22;33.20;36.50
22852;DHT22;11592;45.460;9.240;2023-02-14T11:52:52;33.90;35.30
22852;DHT22;11592;45.460;9.240;2023-02-14T11:55:26;33.80;33.90
22852;DHT22;11592;45.460;9.240;2023-02-14T11:57:54;34.60;32.30
22852;DHT22;11592;45.460;9.240;2023-02-14T12:00:21;34.70;32.10
22852;DHT22;11592;45.460;9.240;2023-02-14T12:02:49;34.50;31.80
22852;DHT22;11592;45.460;9.240;2023-02-14T12:07:51;32.60;33.50
22852;DHT22;11592;45.460;9.240;2023-02-14T12:10:30;32.40;33.50
22852;DHT22;11592;45.460;9.240;2023-02-14T12:20:54;33.40;31.60
22852;DHT22;11592;45.460;9.240;2023-02-14T12:23:27;33.40;30.60
22852;DHT22;11592;45.460;9.240;2023-02-14T12:26:34;34.00;30.30
22852;DHT22;11592;45.460;9.240;2023-02-14T12:29:26;34.10;30.60
22852;DHT22;11592;45.460;9.240;2023-02-14T12:31:59;35.10;30.00
22852;DHT22;11592;45.460;9.240;2023-02-14T12:34:27;34.70;29.60
22852;DHT22;11592;45.460;9.240;2023-02-14T12:56:09;35.90;28.00
22852;DHT22;11592;45.460;9.240;2023-02-14T12:59:01;35.60;28.30
22852;DHT22;11592;45.460;9.240;2023-02-14T13:07:29;36.00;27.90
22852;DHT22;11592;45.460;9.240;2023-02-14T13:13:49;34.90;28.50
22852;DHT22;11592;45.460;9.240;2023-02-14T13:16:53;34.40;28.70
22852;DHT22;11592;45.460;9.240;2023-02-14T13:22:35;34.50;28.80
22852;DHT22;11592;45.460;9.240;2023-02-14T13:25:27;33.50;29.20
22852;DHT22;11592;45.460;9.240;2023-02-14T13:27:58;33.50;29.40
22852;DHT22;11592;45.460;9.240;2023-02-14T13:30:34;33.60;29.50
22852;DHT22;11592;45.460;9.240;2023-02-14T13:33:10;33.70;29.20
22852;DHT22;11592;45.460;9.240;2023-02-14T13:35:40;33.70;28.90
22852;DHT22;11592;45.460;9.240;2023-02-14T13:38:12;34.20;29.00
22852;DHT22;11592;45.460;9.240;2023-02-14T13:40:41;34.10;29.10
22852;DHT22;11592;45.460;9.240;2023-02-14T13:43:08;34.10;28.90
22852;DHT22;11592;45.460;9.240;2023-02-14T13:48:19;33.50;29.40
22852;DHT22;11592;45.460;9.240;2023-02-14T13:51:02;34.00;28.50
22852;DHT22;11592;45.460;9.240;2023-02-14T13:53:41;34.10;28.40
22852;DHT22;11592;45.460;9.240;2023-02-14T13:58:52;33.60;28.70
22852;DHT22;11592;45.460;9.240;2023-02-14T14:07:21;34.00;28.20
22852;DHT22;11592;45.460;9.240;2023-02-14T14:22:54;33.20;28.80
22852;DHT22;11592;45.460;9.240;2023-02-14T14:25:33;33.40;28.40
22852;DHT22;11592;45.460;9.240;2023-02-14T14:28:22;33.10;28.30
22852;DHT22;11592;45.460;9.240;2023-02-14T14:30:50;32.60;28.70
22852;DHT22;11592;45.460;9.240;2023-02-14T14:33:30;32.00;28.70
22852;DHT22;11592;45.460;9.240;2023-02-14T14:36:07;31.90;29.20
22852;DHT22;11592;45.460;9.240;2023-02-14T14:38:46;32.10;29.00
22852;DHT22;11592;45.460;9.240;2023-02-14T14:41:13;31.10;29.30
22852;DHT22;11592;45.460;9.240;2023-02-14T14:43:40;28.00;31.30
22852;DHT22;11592;45.460;9.240;2023-02-14T14:46:10;25.90;34.00
22852;DHT22;11592;45.460;9.240;2023-02-14T14:48:42;24.20;36.20
22852;DHT22;11592;45.460;9.240;2023-02-14T14:51:29;22.80;38.50
22852;DHT22;11592;45.460;9.240;2023-02-14T14:53:59;22.10;40.00
22852;DHT22;11592;45.460;9.240;2023-02-14T14:56:28;21.20;41.20
22852;DHT22;11592;45.460;9.240;2023-02-14T14:58:57;20.30;42.80
22852;DHT22;11592;45.460;9.240;2023-02-14T15:01:40;20.50;43.90
22852;DHT22;11592;45.460;9.240;2023-02-14T15:04:18;19.50;44.80
22852;DHT22;11592;45.460;9.240;2023-02-14T15:06:46;19.40;45.20
22852;DHT22;11592;45.460;9.240;2023-02-14T15:09:23;19.00;45.70
22852;DHT22;11592;45.460;9.240;2023-02-14T15:11:56;18.90;46.80
22852;DHT22;11592;45.460;9.240;2023-02-14T15:14:44;18.80;46.70
22852;DHT22;11592;45.460;9.240;2023-02-14T15:17:27;18.70;47.20
22852;DHT22;11592;45.460;9.240;2023-02-14T15:19:58;18.40;47.10
22852;DHT22;11592;45.460;9.240;2023-02-14T15:22:29;18.10;48.00
22852;DHT22;11592;45.460;9.240;2023-02-14T15:24:58;18.00;48.80
22852;DHT22;11592;45.460;9.240;2023-02-14T15:27:26;17.80;49.10
22852;DHT22;11592;45.460;9.240;2023-02-14T15:32:24;17.80;49.90
22852;DHT22;11592;45.460;9.240;2023-02-14T15:34:52;17.90;50.40
22852;DHT22;11592;45.460;9.240;2023-02-14T15:37:20;17.70;50.50
22852;DHT22;11592;45.460;9.240;2023-02-14T15:39:50;17.60;50.80
22852;DHT22;11592;45.460;9.240;2023-02-14T15:44:48;17.30;51.60
22852;DHT22;11592;45.460;9.240;2023-02-14T15:47:15;17.20;51.90
22852;DHT22;11592;45.460;9.240;2023-02-14T15:49:43;17.10;52.30
22852;DHT22;11592;45.460;9.240;2023-02-14T15:52:13;17.10;52.60
22852;DHT22;11592;45.460;9.240;2023-02-14T15:54:46;17.10;53.10
22852;DHT22;11592;45.460;9.240;2023-02-14T15:57:23;16.90;53.70
22852;DHT22;11592;45.460;9.240;2023-02-14T15:59:51;16.90;54.20
22852;DHT22;11592;45.460;9.240;2023-02-14T16:02:28;16.90;54.50
22852;DHT22;11592;45.460;9.240;2023-02-14T16:05:05;16.90;54.80
22852;DHT22;11592;45.460;9.240;2023-02-14T16:07:34;17.00;54.80
22852;DHT22;11592;45.460;9.240;2023-02-14T16:10:23;16.90;54.90
22852;DHT22;11592;45.460;9.240;2023-02-14T16:13:18;16.80;55.40
22852;DHT22;11592;45.460;9.240;2023-02-14T16:16:03;16.80;55.60
22852;DHT22;11592;45.460;9.240;2023-02-14T16:18:48;16.50;56.30
22852;DHT22;11592;45.460;9.240;2023-02-14T16:26:44;16.00;58.20
22852;DHT22;11592;45.460;9.240;2023-02-14T16:29:14;16.10;58.60
22852;DHT22;11592;45.460;9.240;2023-02-14T16:31:53;16.00;58.80
22852;DHT22;11592;45.460;9.240;2023-02-14T16:34:40;16.00;59.10
22852;DHT22;11592;45.460;9.240;2023-02-14T16:37:37;16.00;59.30
22852;DHT22;11592;45.460;9.240;2023-02-14T16:40:04;15.80;60.50
22852;DHT22;11592;45.460;9.240;2023-02-14T16:42:39;15.90;60.10
22852;DHT22;11592;45.460;9.240;2023-02-14T16:45:12;15.80;60.50
22852;DHT22;11592;45.460;9.240;2023-02-14T16:47:39;15.80;61.00
22852;DHT22;11592;45.460;9.240;2023-02-14T16:50:06;15.70;61.40
22852;DHT22;11592;45.460;9.240;2023-02-14T16:52:33;15.60;62.10
22852;DHT22;11592;45.460;9.240;2023-02-14T16:55:01;15.70;62.60
22852;DHT22;11592;45.460;9.240;2023-02-14T16:57:39;15.60;62.80
22852;DHT22;11592;45.460;9.240;2023-02-14T17:00:07;15.60;63.20
22852;DHT22;11592;45.460;9.240;2023-02-14T17:02:35;15.50;64.00
22852;DHT22;11592;45.460;9.240;2023-02-14T17:05:02;15.40;64.70
22852;DHT22;11592;45.460;9.240;2023-02-14T17:07:31;15.40;64.80
22852;DHT22;11592;45.460;9.240;2023-02-14T17:10:02;15.20;65.10
22852;DHT22;11592;45.460;9.240;2023-02-14T17:12:34;15.10;65.80
22852;DHT22;11592;45.460;9.240;2023-02-14T17:15:04;15.10;66.30
22852;DHT22;11592;45.460;9.240;2023-02-14T17:17:35;15.00;66.70
22852;DHT22;11592;45.460;9.240;2023-02-14T17:20:04;15.00;67.40
22852;DHT22;11592;45.460;9.240;2023-02-14T17:22:31;14.90;68.40
22852;DHT22;11592;45.460;9.240;2023-02-14T17:24:59;14.90;68.50
22852;DHT22;11592;45.460;9.240;2023-02-14T17:27:26;14.80;70.00
22852;DHT22;11592;45.460;9.240;2023-02-14T17:29:53;14.70;71.60
22852;DHT22;11592;45.460;9.240;2023-02-14T17:32:20;14.70;70.90
22852;DHT22;11592;45.460;9.240;2023-02-14T17:34:46;14.70;70.90
22852;DHT22;11592;45.460;9.240;2023-02-14T17:37:14;14.50;72.70
22852;DHT22;11592;45.460;9.240;2023-02-14T17:39:41;14.20;75.70
22852;DHT22;11592;45.460;9.240;2023-02-14T17:42:08;13.90;77.90
22852;DHT22;11592;45.460;9.240;2023-02-14T17:44:37;13.70;79.70
22852;DHT22;11592;45.460;9.240;2023-02-14T17:47:04;13.60;82.70
22852;DHT22;11592;45.460;9.240;2023-02-14T17:49:31;13.40;85.20
22852;DHT22;11592;45.460;9.240;2023-02-14T17:51:58;13.10;87.60
22852;DHT22;11592;45.460;9.240;2023-02-14T17:54:25;13.00;89.60
22852;DHT22;11592;45.460;9.240;2023-02-14T17:56:51;12.80;91.80
22852;DHT22;11592;45.460;9.240;2023-02-14T17:59:18;12.70;93.20
22852;DHT22;11592;45.460;9.240;2023-02-14T18:01:45;12.50;94.50
22852;DHT22;11592;45.460;9.240;2023-02-14T18:04:12;12.50;94.80
22852;DHT22;11592;45.460;9.240;2023-02-14T18:06:39;12.50;95.70
22852;DHT22;11592;45.460;9.240;2023-02-14T18:09:08;12.40;96.40
22852;DHT22;11592;45.460;9.240;2023-02-14T18:11:37;12.30;96.70
22852;DHT22;11592;45.460;9.240;2023-02-14T18:14:04;12.20;97.40
22852;DHT22;11592;45.460;9.240;2023-02-14T18:16:30;12.20;98.00
22852;DHT22;11592;45.460;9.240;2023-02-14T18:19:01;12.00;98.60
22852;DHT22;11592;45.460;9.240;2023-02-14T18:21:31;12.00;99.10
22852;DHT22;11592;45.460;9.240;2023-02-14T18:24:02;11.90;99.90
22852;DHT22;11592;45.460;9.240;2023-02-14T18:26:29;11.80;99.90
22852;DHT22;11592;45.460;9.240;2023-02-14T18:28:57;11.70;99.90
22852;DHT22;11592;45.460;9.240;2023-02-14T18:31:24;11.70;99.90